Time,TemperatureF,DewpointF,PressureIn,WindDirection,WindDirectionDegrees,WindSpeedMPH,WindSpeedGustMPH,Humidity,HourlyPrecipIn,Conditions,Clouds,dailyrainin,SoftwareType,DateUTC
2013-02-24 00:01:00,69.0,66.0,29.97,SW,233,4.0,7.0,88,-99.99,,,-99.99,,2013-02-24 05:01:00,
2013-02-24 00:11:00,69.0,66.0,29.96,SW,235,5.0,7.0,89,-99.99,,,-99.99,,2013-02-24 05:11:00,
2013-02-24 00:22:00,69.0,66.0,29.96,SW,235,5.0,7.0,89,-99.99,,,-99.99,,2013-02-24 05:22:00,
2013-02-24 00:32:00,69.0,66.0,29.96,SW,235,5.0,7.0,89,-99.99,,,-99.99,,2013-02-24 05:32:00,
2013-02-24 00:42:00,70.0,67.0,29.96,SW,232,8.0,11.0,91,-99.99,,,-99.99,,2013-02-24 05:42:00,
2013-02-24 00:52:00,70.0,67.0,29.96,SW,232,8.0,11.0,91,-99.99,,,-99.99,,2013-02-24 05:52:00,
2013-02-24 01:02:00,69.0,67.0,29.96,SW,222,7.0,11.0,91,-99.99,,,-99.99,,2013-02-24 06:02:00,
2013-02-24 01:11:00,69.0,67.0,29.96,SW,227,8.0,12.0,91,-99.99,,,-99.99,,2013-02-24 06:11:00,
2013-02-24 01:21:00,69.0,67.0,29.96,SW,227,8.0,12.0,91,-99.99,,,-99.99,,2013-02-24 06:21:00,
2013-02-24 01:32:00,69.0,66.0,29.96,SW,228,6.0,9.0,91,-99.99,,,-99.99,,2013-02-24 06:32:00,
2013-02-24 01:42:00,68.0,66.0,29.95,SW,221,5.0,6.0,91,-99.99,,,-99.99,,2013-02-24 06:42:00,
2013-02-24 01:52:00,68.0,66.0,29.95,SW,221,5.0,6.0,91,-99.99,,,-99.99,,2013-02-24 06:52:00,
2013-02-24 02:01:00,68.0,66.0,29.95,SW,218,5.0,7.0,92,-99.99,,,-99.99,,2013-02-24 07:01:00,
2013-02-24 02:12:00,68.0,66.0,29.95,SW,219,5.0,7.0,92,-99.99,,,-99.99,,2013-02-24 07:12:00,
2013-02-24 02:22:00,68.0,66.0,29.95,SW,219,5.0,7.0,92,-99.99,,,-99.99,,2013-02-24 07:22:00,
2013-02-24 02:32:00,68.0,66.0,29.94,SSW,200,6.0,9.0,92,-99.99,,,-99.99,,2013-02-24 07:32:00,
2013-02-24 02:42:00,68.0,66.0,29.94,SSW,201,6.0,10.0,92,-99.99,,,-99.99,,2013-02-24 07:42:00,
2013-02-24 02:52:00,68.0,66.0,29.93,SSW,209,6.0,10.0,92,-99.99,,,-99.99,,2013-02-24 07:52:00,
2013-02-24 03:01:00,68.0,66.0,29.93,SW,224,6.0,9.0,92,-99.99,,,-99.99,,2013-02-24 08:01:00,
2013-02-24 03:11:00,68.0,66.0,29.93,SW,224,6.0,9.0,92,-99.99,,,-99.99,,2013-02-24 08:11:00,
2013-02-24 03:22:00,68.0,66.0,29.93,SW,224,6.0,9.0,92,-99.99,,,-99.99,,2013-02-24 08:22:00,
2013-02-24 03:32:00,68.0,66.0,29.93,SSW,211,6.0,9.0,92,-99.99,,,-99.99,,2013-02-24 08:32:00,
2013-02-24 03:42:00,68.0,66.0,29.93,SSW,211,6.0,9.0,92,-99.99,,,-99.99,,2013-02-24 08:42:00,
2013-02-24 03:54:00,68.0,66.0,29.93,SW,225,6.0,9.0,92,-99.99,,,-99.99,,2013-02-24 08:54:00,
2013-02-24 04:02:00,68.0,66.0,29.93,SW,227,7.0,12.0,91,-99.99,,,-99.99,,2013-02-24 09:02:00,
2013-02-24 04:11:00,68.0,66.0,29.93,SW,227,7.0,12.0,91,-99.99,,,-99.99,,2013-02-24 09:11:00,
2013-02-24 04:22:00,68.0,66.0,29.93,SW,227,7.0,12.0,91,-99.99,,,-99.99,,2013-02-24 09:22:00,
2013-02-24 04:32:00,68.0,66.0,29.92,SW,223,7.0,13.0,91,-99.99,,,-99.99,,2013-02-24 09:32:00,
2013-02-24 04:42:00,69.0,66.0,29.91,SW,216,7.0,13.0,90,-99.99,,,-99.99,,2013-02-24 09:42:00,
2013-02-24 04:52:00,69.0,66.0,29.91,SW,216,7.0,13.0,90,-99.99,,,-99.99,,2013-02-24 09:52:00,
2013-02-24 05:01:00,68.0,65.0,29.91,SSW,195,6.0,8.0,90,-99.99,,,-99.99,,2013-02-24 10:01:00,
2013-02-24 05:11:00,68.0,65.0,29.91,SSW,195,6.0,8.0,90,-99.99,,,-99.99,,2013-02-24 10:11:00,
2013-02-24 05:22:00,68.0,65.0,29.91,SSW,195,6.0,8.0,90,-99.99,,,-99.99,,2013-02-24 10:22:00,
2013-02-24 05:32:00,68.0,65.0,29.92,SW,216,4.0,6.0,90,-99.99,,,-99.99,,2013-02-24 10:32:00,
2013-02-24 05:42:00,68.0,65.0,29.92,SW,216,4.0,6.0,90,-99.99,,,-99.99,,2013-02-24 10:42:00,
2013-02-24 05:52:00,68.0,65.0,29.93,WSW,239,5.0,7.0,91,-99.99,,,-99.99,,2013-02-24 10:52:00,
2013-02-24 06:01:00,68.0,65.0,29.93,WSW,239,5.0,7.0,91,-99.99,,,-99.99,,2013-02-24 11:01:00,
2013-02-24 06:11:00,68.0,65.0,29.93,WSW,244,4.0,7.0,91,-99.99,,,-99.99,,2013-02-24 11:11:00,
2013-02-24 06:22:00,68.0,65.0,29.93,WSW,244,4.0,7.0,91,-99.99,,,-99.99,,2013-02-24 11:22:00,
2013-02-24 06:32:00,68.0,65.0,29.93,WSW,244,4.0,7.0,91,-99.99,,,-99.99,,2013-02-24 11:32:00,
2013-02-24 06:42:00,68.0,66.0,29.95,WSW,244,5.0,8.0,91,-99.99,,,-99.99,,2013-02-24 11:42:00,
2013-02-24 06:53:00,68.0,66.0,29.95,WSW,244,5.0,8.0,91,-99.99,,,-99.99,,2013-02-24 11:53:00,
2013-02-24 07:02:00,68.0,66.0,29.95,WSW,245,4.0,8.0,91,-99.99,,,-99.99,,2013-02-24 12:02:00,
2013-02-24 07:11:00,68.0,66.0,29.96,SW,236,6.0,9.0,91,-99.99,,,-99.99,,2013-02-24 12:11:00,
2013-02-24 07:22:00,68.0,66.0,29.96,SW,236,6.0,9.0,91,-99.99,,,-99.99,,2013-02-24 12:22:00,
2013-02-24 07:32:00,69.0,66.0,29.97,SSW,212,5.0,9.0,90,-99.99,,,-99.99,,2013-02-24 12:32:00,
2013-02-24 07:46:00,69.0,66.0,29.97,SSW,212,5.0,9.0,90,-99.99,,,-99.99,,2013-02-24 12:46:00,
2013-02-24 07:59:00,69.0,66.0,29.97,SSW,209,5.0,8.0,90,-99.99,,,-99.99,,2013-02-24 12:59:00,
2013-02-24 08:15:00,69.0,66.0,29.97,SSW,209,5.0,8.0,90,-99.99,,,-99.99,,2013-02-24 13:15:00,
2013-02-24 08:27:00,69.0,66.0,29.97,SSW,201,7.0,10.0,90,-99.99,,,-99.99,,2013-02-24 13:27:00,
2013-02-24 08:34:00,69.0,66.0,29.97,SSW,203,7.0,13.0,89,-99.99,,,-99.99,,2013-02-24 13:34:00,
2013-02-24 08:45:00,69.0,65.0,29.98,SSW,198,7.0,13.0,89,-99.99,,,-99.99,,2013-02-24 13:45:00,
2013-02-24 08:55:00,69.0,65.0,29.98,SSW,198,7.0,13.0,89,-99.99,,,-99.99,,2013-02-24 13:55:00,
2013-02-24 09:05:00,69.0,65.0,29.98,SSW,208,9.0,17.0,88,-99.99,,,-99.99,,2013-02-24 14:05:00,
2013-02-24 09:14:00,69.0,65.0,29.98,SSW,213,8.0,12.0,86,-99.99,,,-99.99,,2013-02-24 14:14:00,
2013-02-24 09:25:00,69.0,65.0,29.98,SSW,213,8.0,12.0,86,-99.99,,,-99.99,,2013-02-24 14:25:00,
2013-02-24 09:34:00,69.0,65.0,29.98,SSW,213,8.0,12.0,86,-99.99,,,-99.99,,2013-02-24 14:34:00,
2013-02-24 09:44:00,73.0,66.0,29.99,SW,217,8.0,11.0,79,-99.99,,,-99.99,,2013-02-24 14:44:00,
2013-02-24 09:55:00,73.0,66.0,29.99,SW,217,8.0,11.0,79,-99.99,,,-99.99,,2013-02-24 14:55:00,
2013-02-24 10:04:00,74.0,66.0,29.99,SSW,211,7.0,15.0,76,-99.99,,,-99.99,,2013-02-24 15:04:00,
2013-02-24 10:14:00,75.0,66.0,29.99,SSW,211,8.0,13.0,74,-99.99,,,-99.99,,2013-02-24 15:14:00,
2013-02-24 10:24:00,75.0,66.0,29.99,SSW,211,8.0,13.0,74,-99.99,,,-99.99,,2013-02-24 15:24:00,
2013-02-24 10:32:00,75.0,66.0,29.99,WSW,244,9.0,13.0,72,-99.99,,,-99.99,,2013-02-24 15:32:00,
2013-02-24 10:42:00,76.0,66.0,29.99,SW,228,7.0,11.0,72,-99.99,,,-99.99,,2013-02-24 15:42:00,
2013-02-24 10:53:00,76.0,66.0,29.99,SW,228,7.0,11.0,72,-99.99,,,-99.99,,2013-02-24 15:53:00,
2013-02-24 11:02:00,76.0,67.0,30.00,SW,223,5.0,7.0,71,-99.99,,,-99.99,,2013-02-24 16:02:00,
2013-02-24 11:12:00,77.0,67.0,30.00,SW,236,6.0,11.0,70,-99.99,,,-99.99,,2013-02-24 16:12:00,
2013-02-24 11:22:00,77.0,67.0,30.00,SW,236,6.0,11.0,70,-99.99,,,-99.99,,2013-02-24 16:22:00,
2013-02-24 11:32:00,77.0,67.0,30.00,SW,227,6.0,10.0,68,-99.99,,,-99.99,,2013-02-24 16:32:00,
2013-02-24 11:42:00,80.0,67.0,29.99,SW,222,6.0,9.0,64,-99.99,,,-99.99,,2013-02-24 16:42:00,
2013-02-24 11:52:00,80.0,67.0,29.99,SW,222,6.0,9.0,64,-99.99,,,-99.99,,2013-02-24 16:52:00,
2013-02-24 12:01:00,80.0,66.0,29.99,SW,219,6.0,10.0,61,-99.99,,,-99.99,,2013-02-24 17:01:00,
2013-02-24 12:11:00,80.0,66.0,29.98,WSW,242,6.0,10.0,61,-99.99,,,-99.99,,2013-02-24 17:11:00,
2013-02-24 12:22:00,80.0,66.0,29.98,WSW,242,6.0,10.0,61,-99.99,,,-99.99,,2013-02-24 17:22:00,
2013-02-24 12:32:00,80.0,66.0,29.98,WSW,242,6.0,10.0,61,-99.99,,,-99.99,,2013-02-24 17:32:00,
2013-02-24 12:42:00,80.0,66.0,29.97,WSW,241,7.0,11.0,61,-99.99,,,-99.99,,2013-02-24 17:42:00,
2013-02-24 12:53:00,80.0,66.0,29.97,WSW,241,7.0,11.0,61,-99.99,,,-99.99,,2013-02-24 17:53:00,
2013-02-24 13:02:00,82.0,66.0,29.97,WNW,284,7.0,11.0,58,-99.99,,,-99.99,,2013-02-24 18:02:00,
2013-02-24 13:11:00,81.0,65.0,29.97,WNW,290,6.0,11.0,58,-99.99,,,-99.99,,2013-02-24 18:11:00,
2013-02-24 13:22:00,81.0,65.0,29.97,WNW,290,6.0,11.0,58,-99.99,,,-99.99,,2013-02-24 18:22:00,
2013-02-24 13:32:00,80.0,65.0,29.96,West,281,6.0,9.0,59,-99.99,,,-99.99,,2013-02-24 18:32:00,
2013-02-24 13:42:00,80.0,66.0,29.96,WNW,293,7.0,10.0,61,-99.99,,,-99.99,,2013-02-24 18:42:00,
2013-02-24 13:52:00,80.0,66.0,29.96,WNW,293,7.0,10.0,61,-99.99,,,-99.99,,2013-02-24 18:52:00,
2013-02-24 14:01:00,76.0,68.0,29.96,NW,320,9.0,12.0,74,-99.99,,,-99.99,,2013-02-24 19:01:00,
2013-02-24 14:12:00,73.0,68.0,29.95,NW,314,6.0,9.0,84,-99.99,,,-99.99,,2013-02-24 19:12:00,
2013-02-24 14:22:00,73.0,68.0,29.95,NW,314,6.0,9.0,84,-99.99,,,-99.99,,2013-02-24 19:22:00,
2013-02-24 14:32:00,75.0,70.0,29.95,NW,313,5.0,7.0,85,-99.99,,,-99.99,,2013-02-24 19:32:00,
2013-02-24 14:42:00,76.0,70.0,29.94,NW,322,6.0,8.0,81,-99.99,,,-99.99,,2013-02-24 19:42:00,
2013-02-24 14:52:00,76.0,70.0,29.94,NW,322,6.0,8.0,81,-99.99,,,-99.99,,2013-02-24 19:52:00,
2013-02-24 15:02:00,77.0,70.0,29.94,NW,311,5.0,8.0,78,-99.99,,,-99.99,,2013-02-24 20:02:00,
2013-02-24 15:11:00,77.0,69.0,29.94,NW,309,7.0,10.0,76,-99.99,,,-99.99,,2013-02-24 20:11:00,
2013-02-24 15:22:00,77.0,69.0,29.94,NW,309,7.0,10.0,76,-99.99,,,-99.99,,2013-02-24 20:22:00,
2013-02-24 15:32:00,78.0,69.0,29.94,NW,320,5.0,8.0,74,-99.99,,,-99.99,,2013-02-24 20:32:00,
2013-02-24 15:42:00,78.0,69.0,29.94,NW,320,5.0,8.0,74,-99.99,,,-99.99,,2013-02-24 20:42:00,
2013-02-24 15:52:00,78.0,68.0,29.94,NW,315,5.0,8.0,72,-99.99,,,-99.99,,2013-02-24 20:52:00,
2013-02-24 16:02:00,78.0,68.0,29.94,NW,304,5.0,8.0,71,-99.99,,,-99.99,,2013-02-24 21:02:00,
2013-02-24 16:11:00,78.0,68.0,29.94,NW,304,5.0,8.0,71,-99.99,,,-99.99,,2013-02-24 21:11:00,
2013-02-24 16:21:00,78.0,68.0,29.94,NW,304,5.0,8.0,71,-99.99,,,-99.99,,2013-02-24 21:21:00,
2013-02-24 16:32:00,78.0,67.0,29.93,NW,304,7.0,10.0,67,-99.99,,,-99.99,,2013-02-24 21:32:00,
2013-02-24 16:42:00,78.0,67.0,29.93,West,268,7.0,10.0,68,-99.99,,,-99.99,,2013-02-24 21:42:00,
2013-02-24 16:52:00,76.0,68.0,29.94,ENE,60,9.0,13.0,76,-99.99,,,-99.99,,2013-02-24 21:52:00,
2013-02-24 17:01:00,76.0,68.0,29.94,ENE,60,9.0,13.0,76,-99.99,,,-99.99,,2013-02-24 22:01:00,
2013-02-24 17:11:00,76.0,68.0,29.94,East,99,8.0,12.0,77,-99.99,,,-99.99,,2013-02-24 22:11:00,
2013-02-24 17:22:00,76.0,68.0,29.94,East,99,8.0,12.0,77,-99.99,,,-99.99,,2013-02-24 22:22:00,
2013-02-24 17:32:00,75.0,68.0,29.94,SSE,157,7.0,12.0,77,-99.99,,,-99.99,,2013-02-24 22:32:00,
2013-02-24 17:42:00,75.0,68.0,29.94,ESE,119,7.0,10.0,77,-99.99,,,-99.99,,2013-02-24 22:42:00,
2013-02-24 17:52:00,75.0,68.0,29.94,SE,145,7.0,10.0,76,-99.99,,,-99.99,,2013-02-24 22:52:00,
2013-02-24 18:02:00,75.0,68.0,29.94,SE,145,7.0,10.0,76,-99.99,,,-99.99,,2013-02-24 23:02:00,
2013-02-24 18:11:00,75.0,67.0,29.94,South,180,6.0,9.0,77,-99.99,,,-99.99,,2013-02-24 23:11:00,
2013-02-24 18:22:00,75.0,67.0,29.94,South,180,6.0,9.0,77,-99.99,,,-99.99,,2013-02-24 23:22:00,
2013-02-24 18:32:00,75.0,67.0,29.94,South,180,6.0,9.0,77,-99.99,,,-99.99,,2013-02-24 23:32:00,
2013-02-24 18:42:00,73.0,67.0,29.94,NE,51,3.0,4.0,80,-99.99,,,-99.99,,2013-02-24 23:42:00,
2013-02-24 18:52:00,73.0,67.0,29.94,NE,51,3.0,4.0,80,-99.99,,,-99.99,,2013-02-24 23:52:00,
2013-02-24 19:02:00,72.0,67.0,29.94,NNE,24,4.0,6.0,81,-99.99,,,-99.99,,2013-02-25 00:02:00,
2013-02-24 19:11:00,72.0,66.0,29.95,NNE,17,4.0,5.0,83,-99.99,,,-99.99,,2013-02-25 00:11:00,
2013-02-24 19:22:00,72.0,66.0,29.95,NNE,17,4.0,5.0,83,-99.99,,,-99.99,,2013-02-25 00:22:00,
2013-02-24 19:32:00,71.0,66.0,29.95,NNE,31,3.0,5.0,84,-99.99,,,-99.99,,2013-02-25 00:32:00,
2013-02-24 19:42:00,71.0,66.0,29.95,NE,56,4.0,10.0,85,-99.99,,,-99.99,,2013-02-25 00:42:00,
2013-02-24 19:52:00,71.0,66.0,29.95,NE,56,4.0,10.0,85,-99.99,,,-99.99,,2013-02-25 00:52:00,
2013-02-24 20:01:00,70.0,66.0,29.96,NE,56,6.0,10.0,86,-99.99,,,-99.99,,2013-02-25 01:01:00,
2013-02-24 20:11:00,69.0,65.0,29.96,NE,53,6.0,9.0,87,-99.99,,,-99.99,,2013-02-25 01:11:00,
2013-02-24 20:21:00,69.0,65.0,29.96,NE,53,6.0,9.0,87,-99.99,,,-99.99,,2013-02-25 01:21:00,
2013-02-24 20:32:00,69.0,65.0,29.98,NE,56,5.0,6.0,88,-99.99,,,-99.99,,2013-02-25 01:32:00,
2013-02-24 20:42:00,68.0,65.0,29.98,ENE,61,4.0,6.0,88,-99.99,,,-99.99,,2013-02-25 01:42:00,
2013-02-24 20:52:00,68.0,65.0,29.98,ENE,61,4.0,6.0,88,-99.99,,,-99.99,,2013-02-25 01:52:00,
2013-02-24 21:01:00,68.0,64.0,29.98,ENE,61,5.0,7.0,88,-99.99,,,-99.99,,2013-02-25 02:01:00,
2013-02-24 21:11:00,67.0,64.0,29.98,ENE,66,4.0,7.0,88,-99.99,,,-99.99,,2013-02-25 02:11:00,
2013-02-24 21:21:00,67.0,64.0,29.98,ENE,66,4.0,7.0,88,-99.99,,,-99.99,,2013-02-25 02:21:00,
2013-02-24 21:32:00,67.0,64.0,29.98,ENE,66,4.0,7.0,88,-99.99,,,-99.99,,2013-02-25 02:32:00,
2013-02-24 21:42:00,67.0,63.0,29.99,ENE,60,3.0,4.0,88,-99.99,,,-99.99,,2013-02-25 02:42:00,
2013-02-24 21:52:00,67.0,63.0,29.99,ENE,60,3.0,4.0,88,-99.99,,,-99.99,,2013-02-25 02:52:00,
2013-02-24 22:02:00,66.0,63.0,29.99,NE,45,4.0,5.0,89,-99.99,,,-99.99,,2013-02-25 03:02:00,
2013-02-24 22:11:00,66.0,63.0,29.99,East,100,4.0,6.0,90,-99.99,,,-99.99,,2013-02-25 03:11:00,
2013-02-24 22:21:00,66.0,63.0,29.99,East,100,4.0,6.0,90,-99.99,,,-99.99,,2013-02-25 03:21:00,
2013-02-24 22:32:00,67.0,64.0,29.98,ESE,109,1.0,3.0,90,-99.99,,,-99.99,,2013-02-25 03:32:00,
2013-02-24 22:42:00,67.0,64.0,29.98,ESE,109,1.0,3.0,90,-99.99,,,-99.99,,2013-02-25 03:42:00,
2013-02-24 22:52:00,66.0,63.0,29.97,East,87,4.0,6.0,90,-99.99,,,-99.99,,2013-02-25 03:52:00,
2013-02-24 23:02:00,66.0,63.0,29.97,East,87,4.0,6.0,90,-99.99,,,-99.99,,2013-02-25 04:02:00,
2013-02-24 23:11:00,66.0,63.0,29.97,East,84,4.0,6.0,90,-99.99,,,-99.99,,2013-02-25 04:11:00,
2013-02-24 23:21:00,66.0,63.0,29.97,East,84,4.0,6.0,90,-99.99,,,-99.99,,2013-02-25 04:21:00,
2013-02-24 23:32:00,66.0,63.0,29.96,East,98,3.0,5.0,91,-99.99,,,-99.99,,2013-02-25 04:32:00,
2013-02-24 23:42:00,66.0,63.0,29.95,ESE,114,3.0,5.0,91,-99.99,,,-99.99,,2013-02-25 04:42:00,
2013-02-24 23:52:00,66.0,63.0,29.95,ESE,114,3.0,5.0,91,-99.99,,,-99.99,,2013-02-25 04:52:00,